Main page
METAR-TAF:

METAR-TAF

Airports :

Lima, Peru

Jorge Chávez International Airport

latitude: 12-00S, longitude: 077-07W, elevation: 12 m

Current weather observation

The report was made 1 hour and 6 minutes ago, at 22:00 UTC
Wind 10 kt from the South
Temperature 16°C
Humidity 82%
Pressure 1012 hPa
Visibility 10 km or more
Few clouds at a height of 1100 ft
Overcast at a height of 1700 ft

METAR: SPJC 232200Z 17010KT 9999 FEW011 OVC017 16/13 Q1012 NOSIG RMK PP000

Time: 18:06 (23:06 UTC)

Forecast

The report was made 6 hours and 6 minutes ago, at 17:00 UTC
Forecast valid from 23 at 18 UTC to 24 at 18 UTC
Wind 10 kt from the South
Visibility 10 km or more
Overcast at a height of 1200 ft
Temporary
from 23 at 18 UTC to 23 at 19 UTC
Overcast at a height of 900 ft
Becoming
from 24 at 14 UTC to 24 at 16 UTC
Overcast at a height of 1500 ft

TAF: SPJC 231700Z 2318/2418 17010KT 9999 OVC012 TX18/2319Z TN15/2411Z TEMPO 2318/2319 OVC009 BECMG 2414/2416 OVC015

Weather observations and forecasts of more than 4000 airports (METAR and TAF reports).

The available stations are represented by yellow and red dots on the map.

Hover mouse over dot to see the name of the station.

Then click to see weather observations and forecasts.

To change the map : click on the green buttons with a black cross to zoom in, on the green button with a dash to zoom out, or on the green arrows for adjacent maps.


METAR-TAF: